createdAt,value
2019-05-17T00:00:57.328Z,79.16
2019-05-17T00:01:57.737Z,79.05
2019-05-17T00:02:57.184Z,79.46
2019-05-17T00:03:56.572Z,79.46
2019-05-17T00:04:56.503Z,79.25
2019-05-17T00:05:57.073Z,79.25
2019-05-17T00:06:57.037Z,79.25
2019-05-17T00:07:56.762Z,79.16
2019-05-17T00:09:01.385Z,79.70
2019-05-17T00:09:57.126Z,79.25
2019-05-17T00:10:57.027Z,79.46
2019-05-17T00:11:56.843Z,79.46
2019-05-17T00:12:56.472Z,79.25
2019-05-17T00:13:57.013Z,79.16
2019-05-17T00:14:56.395Z,79.36
2019-05-17T00:15:56.650Z,79.36
2019-05-17T00:16:57.258Z,79.57
2019-05-17T00:17:57.107Z,79.66
2019-05-17T00:18:56.823Z,79.97
2019-05-17T00:20:01.251Z,80.01
2019-05-17T00:20:56.979Z,79.39
2019-05-17T00:21:56.653Z,80.21
2019-05-17T00:22:57.415Z,80.52
2019-05-17T00:23:57.199Z,80.52
2019-05-17T00:24:56.829Z,80.52
2019-05-17T00:25:56.490Z,80.42
2019-05-17T00:26:58.460Z,80.32
2019-05-17T00:27:56.426Z,80.52
2019-05-17T00:28:56.334Z,80.52
2019-05-17T00:29:57.139Z,80.52
2019-05-17T00:31:01.167Z,80.32
2019-05-17T00:31:56.867Z,80.01
2019-05-17T00:32:56.958Z,80.01
2019-05-17T00:33:56.628Z,80.32
2019-05-17T00:34:56.451Z,80.01
2019-05-17T00:35:56.351Z,80.62
2019-05-17T00:36:57.441Z,80.93
2019-05-17T00:37:57.115Z,80.93
2019-05-17T00:38:56.775Z,81.03
2019-05-17T00:39:56.686Z,81.03
2019-05-17T00:40:56.463Z,81.13
2019-05-17T00:42:01.038Z,81.34
2019-05-17T00:42:57.033Z,81.24
2019-05-17T00:43:56.902Z,80.93
2019-05-17T00:44:56.541Z,80.73
2019-05-17T00:45:57.466Z,80.83
2019-05-17T00:46:58.795Z,80.83
2019-05-17T00:47:57.243Z,80.62
2019-05-17T00:48:57.264Z,80.32
2019-05-17T00:49:57.004Z,80.52
2019-05-17T00:51:01.280Z,80.11
2019-05-17T00:51:56.877Z,80.11
2019-05-17T00:53:00.885Z,80.01
2019-05-17T00:53:56.316Z,80.73
2019-05-17T00:54:56.315Z,81.24
2019-05-17T00:55:57.284Z,81.03
2019-05-17T00:56:56.685Z,81.03
2019-05-17T00:57:56.528Z,80.93
2019-05-17T00:58:56.805Z,81.34
2019-05-17T00:59:56.534Z,81.13
2019-05-17T01:00:57.103Z,81.24
2019-05-17T01:01:56.187Z,81.13
2019-05-17T01:02:57.364Z,81.24
2019-05-17T01:04:00.771Z,81.54
2019-05-17T01:04:56.818Z,81.34
2019-05-17T01:05:56.761Z,81.65
2019-05-17T01:06:56.321Z,81.54
2019-05-17T01:07:57.309Z,81.65
2019-05-17T01:09:01.922Z,81.65
2019-05-17T01:09:56.744Z,81.13
2019-05-17T01:10:56.632Z,81.34
2019-05-17T01:11:56.687Z,81.03
2019-05-17T01:12:57.524Z,81.24
2019-05-17T01:13:58.079Z,80.73
2019-05-17T01:15:00.654Z,80.62
2019-05-17T01:15:56.573Z,80.93
2019-05-17T01:16:56.501Z,81.24
2019-05-17T01:17:56.281Z,80.83
2019-05-17T01:18:57.309Z,80.93
2019-05-17T01:19:57.428Z,81.44
2019-05-17T01:20:56.787Z,81.34
2019-05-17T01:21:56.811Z,81.65
2019-05-17T01:22:56.659Z,81.44
2019-05-17T01:23:56.254Z,81.54
2019-05-17T01:24:56.956Z,81.54
2019-05-17T01:26:00.513Z,81.44
2019-05-17T01:26:57.420Z,81.03
2019-05-17T01:27:56.362Z,81.54
2019-05-17T01:28:57.347Z,81.54
2019-05-17T01:29:57.316Z,81.54
2019-05-17T01:30:57.022Z,81.44
2019-05-17T01:31:57.092Z,81.34
2019-05-17T01:32:56.987Z,81.13
2019-05-17T01:33:56.502Z,81.03
2019-05-17T01:34:56.481Z,81.13
2019-05-17T01:35:57.272Z,80.93
2019-05-17T01:37:00.397Z,81.13
2019-05-17T01:37:56.473Z,81.34
2019-05-17T01:38:57.442Z,80.93
2019-05-17T01:39:57.362Z,81.44
2019-05-17T01:40:56.417Z,81.54
2019-05-17T01:41:57.330Z,81.65
2019-05-17T01:42:55.302Z,81.54
2019-05-17T01:43:56.898Z,81.74
2019-05-17T01:44:56.736Z,81.54
2019-05-17T01:45:57.284Z,81.44
2019-05-17T01:46:56.713Z,81.54
2019-05-17T01:48:00.271Z,81.44
2019-05-17T01:48:57.575Z,81.03
2019-05-17T01:49:57.447Z,80.83
2019-05-17T01:50:56.819Z,81.13
2019-05-17T01:51:56.826Z,80.93
2019-05-17T01:52:56.592Z,81.13
2019-05-17T01:53:57.219Z,81.03
2019-05-17T01:54:57.141Z,81.13
2019-05-17T01:55:56.862Z,81.54
2019-05-17T01:56:56.652Z,81.24
2019-05-17T01:57:56.459Z,81.74
2019-05-17T01:59:00.145Z,81.85
2019-05-17T01:59:57.058Z,81.54
2019-05-17T02:00:57.149Z,81.85
2019-05-17T02:01:56.518Z,81.65
2019-05-17T02:02:57.559Z,81.95
2019-05-17T02:03:57.364Z,81.95
2019-05-17T02:04:56.982Z,81.54
2019-05-17T02:05:56.577Z,80.93
2019-05-17T02:06:57.275Z,81.13
2019-05-17T02:07:56.943Z,81.24
2019-05-17T02:08:56.884Z,81.34
2019-05-17T02:10:00.023Z,81.44
2019-05-17T02:10:57.211Z,81.13
2019-05-17T02:11:57.064Z,81.24
2019-05-17T02:12:56.963Z,81.03
2019-05-17T02:13:56.210Z,81.13
2019-05-17T02:14:57.390Z,81.24
2019-05-17T02:15:56.492Z,81.03
2019-05-17T02:16:57.235Z,81.24
2019-05-17T02:17:57.238Z,81.03
2019-05-17T02:18:57.175Z,81.44
2019-05-17T02:19:57.184Z,81.34
2019-05-17T02:20:59.905Z,81.34
2019-05-17T02:21:56.967Z,81.13
2019-05-17T02:22:56.462Z,81.24
2019-05-17T02:23:57.012Z,81.13
2019-05-17T02:24:56.769Z,81.34
2019-05-17T02:25:56.975Z,81.44
2019-05-17T02:26:56.928Z,81.34
2019-05-17T02:27:54.812Z,81.44
2019-05-17T02:28:54.787Z,81.03
2019-05-17T02:29:54.776Z,81.13
2019-05-17T02:30:54.784Z,81.03
2019-05-17T02:32:03.508Z,81.13
2019-05-17T02:32:54.745Z,80.93
2019-05-17T02:33:54.732Z,81.03
2019-05-17T02:34:54.719Z,81.13
2019-05-17T02:35:54.717Z,81.03
2019-05-17T02:36:54.708Z,81.34
2019-05-17T02:37:54.687Z,81.74
2019-05-17T02:38:54.675Z,81.54
2019-05-17T02:40:03.220Z,81.74
2019-05-17T02:40:55.655Z,81.65
2019-05-17T02:41:54.653Z,81.65
2019-05-17T02:43:02.811Z,81.54
2019-05-17T02:43:54.618Z,80.93
2019-05-17T02:44:54.609Z,81.34
2019-05-17T02:45:54.602Z,80.93
2019-05-17T02:46:54.605Z,80.83
2019-05-17T02:47:54.577Z,81.24
2019-05-17T02:48:54.575Z,81.13
2019-05-17T02:49:54.552Z,81.03
2019-05-17T02:50:54.543Z,81.13
2019-05-17T02:51:54.545Z,81.24
2019-05-17T02:52:54.520Z,81.65
2019-05-17T02:53:59.535Z,81.54
2019-05-17T02:54:54.504Z,81.95
2019-05-17T02:55:54.487Z,81.95
2019-05-17T02:56:54.505Z,81.85
2019-05-17T02:57:54.466Z,81.95
2019-05-17T02:58:54.463Z,81.85
2019-05-17T02:59:54.449Z,81.54
2019-05-17T03:00:54.436Z,82.15
2019-05-17T03:01:54.441Z,81.44
2019-05-17T03:02:54.408Z,81.65
2019-05-17T03:03:54.399Z,81.54
2019-05-17T03:04:59.409Z,82.15
2019-05-17T03:05:54.383Z,81.44
2019-05-17T03:06:54.408Z,82.15
2019-05-17T03:07:54.360Z,81.95
2019-05-17T03:08:54.356Z,82.26
2019-05-17T03:10:11.756Z,81.65
2019-05-17T03:10:55.325Z,82.20
2019-05-17T03:11:57.060Z,82.20
2019-05-17T03:12:54.314Z,82.20
2019-05-17T03:13:54.285Z,82.40
2019-05-17T03:14:54.275Z,81.99
2019-05-17T03:15:59.287Z,82.29
2019-05-17T03:16:54.257Z,81.88
2019-05-17T03:17:54.264Z,82.09
2019-05-17T03:18:54.232Z,82.29
2019-05-17T03:19:54.219Z,81.88
2019-05-17T03:20:54.208Z,81.88
2019-05-17T03:21:54.221Z,82.09
2019-05-17T03:22:54.198Z,81.48
2019-05-17T03:23:54.226Z,82.20
2019-05-17T03:24:54.162Z,81.79
2019-05-17T03:25:54.153Z,82.09
2019-05-17T03:26:59.169Z,81.88
2019-05-17T03:27:54.152Z,82.09
2019-05-17T03:28:54.179Z,82.40
2019-05-17T03:29:54.111Z,82.29
2019-05-17T03:30:56.328Z,82.09
2019-05-17T03:32:00.177Z,82.29
2019-05-17T03:32:56.731Z,82.50
2019-05-17T03:33:55.806Z,82.29
2019-05-17T03:34:55.905Z,82.40
2019-05-17T03:35:56.592Z,82.20
2019-05-17T03:36:56.603Z,82.29
2019-05-17T03:37:59.056Z,82.20
2019-05-17T03:38:54.014Z,82.09
2019-05-17T03:39:53.997Z,82.20
2019-05-17T03:41:12.480Z,82.29
2019-05-17T03:41:54.972Z,82.29
2019-05-17T03:42:54.126Z,81.95
2019-05-17T03:43:53.952Z,82.09
2019-05-17T03:44:53.945Z,82.09
2019-05-17T03:45:53.936Z,81.88
2019-05-17T03:46:53.921Z,81.99
2019-05-17T03:47:53.919Z,81.88
2019-05-17T03:48:58.922Z,81.88
2019-05-17T03:49:53.893Z,81.85
2019-05-17T03:50:53.878Z,81.68
2019-05-17T03:51:53.869Z,81.88
2019-05-17T03:52:53.873Z,81.68
2019-05-17T03:53:53.840Z,81.58
2019-05-17T03:54:53.838Z,81.68
2019-05-17T03:55:54.276Z,81.68
2019-05-17T03:56:53.825Z,81.79
2019-05-17T03:57:53.800Z,81.68
2019-05-17T03:58:53.796Z,81.79
2019-05-17T03:59:58.794Z,81.79
2019-05-17T04:00:53.802Z,81.68
2019-05-17T04:01:53.752Z,81.88
2019-05-17T04:02:54.091Z,82.09
2019-05-17T04:03:53.739Z,82.09
2019-05-17T04:04:53.717Z,82.29
2019-05-17T04:05:53.708Z,81.79
2019-05-17T04:06:53.705Z,82.40
2019-05-17T04:07:53.995Z,82.20
2019-05-17T04:08:53.699Z,82.29
2019-05-17T04:09:53.666Z,82.20
2019-05-17T04:11:16.349Z,82.09
2019-05-17T04:11:54.643Z,82.20
2019-05-17T04:12:53.636Z,81.99
2019-05-17T04:13:54.125Z,82.29
2019-05-17T04:14:53.711Z,82.29
2019-05-17T04:15:53.627Z,82.60
2019-05-17T04:16:53.885Z,82.50
2019-05-17T04:17:53.571Z,82.29
2019-05-17T04:18:53.793Z,82.20
2019-05-17T04:19:53.660Z,82.20
2019-05-17T04:20:53.550Z,82.29
2019-05-17T04:21:58.638Z,81.79
2019-05-17T04:22:53.514Z,81.74
2019-05-17T04:23:53.908Z,82.09
2019-05-17T04:24:53.500Z,82.15
2019-05-17T04:25:53.538Z,82.15
2019-05-17T04:26:53.470Z,82.15
2019-05-17T04:27:53.745Z,81.74
2019-05-17T04:28:53.644Z,81.74
2019-05-17T04:29:53.604Z,81.95
2019-05-17T04:30:53.436Z,81.65
2019-05-17T04:31:54.582Z,81.65
2019-05-17T04:32:58.430Z,81.85
2019-05-17T04:33:53.798Z,81.85
2019-05-17T04:34:53.381Z,81.74
2019-05-17T04:35:54.056Z,81.65
2019-05-17T04:36:53.379Z,81.34
2019-05-17T04:37:53.418Z,81.13
2019-05-17T04:38:53.346Z,81.24
2019-05-17T04:39:53.351Z,81.24
2019-05-17T04:40:53.956Z,81.20
2019-05-17T04:41:54.773Z,81.10
2019-05-17T04:42:53.293Z,80.99
2019-05-17T04:43:58.314Z,81.10
2019-05-17T04:44:53.287Z,81.20
2019-05-17T04:45:53.866Z,81.20
2019-05-17T04:46:53.757Z,80.79
2019-05-17T04:47:53.236Z,80.79
2019-05-17T04:48:53.690Z,80.89
2019-05-17T04:49:53.804Z,80.38
2019-05-17T04:50:53.830Z,80.48
2019-05-17T04:51:53.195Z,79.87
2019-05-17T04:52:53.914Z,80.69
2019-05-17T04:53:53.270Z,80.48
2019-05-17T04:54:58.201Z,80.69
2019-05-17T04:55:54.111Z,80.18
2019-05-17T04:56:53.471Z,80.38
2019-05-17T04:57:53.375Z,80.28
2019-05-17T04:58:54.412Z,80.38
2019-05-17T04:59:53.116Z,80.48
2019-05-17T05:00:53.943Z,80.18
2019-05-17T05:01:53.837Z,80.48
2019-05-17T05:02:53.155Z,80.14
2019-05-17T05:03:53.059Z,79.66
2019-05-17T05:04:53.414Z,79.93
2019-05-17T05:05:58.057Z,79.83
2019-05-17T05:06:53.030Z,79.87
2019-05-17T05:07:53.655Z,79.52
2019-05-17T05:08:53.077Z,79.66
2019-05-17T05:09:53.007Z,79.73
2019-05-17T05:10:53.620Z,79.43
2019-05-17T05:12:00.803Z,79.46
2019-05-17T05:12:53.957Z,79.43
2019-05-17T05:13:53.281Z,79.43
2019-05-17T05:14:52.958Z,79.32
2019-05-17T05:15:52.927Z,79.43
2019-05-17T05:16:57.939Z,79.52
2019-05-17T05:17:52.925Z,79.32
2019-05-17T05:18:52.898Z,79.12
2019-05-17T05:19:53.163Z,79.25
2019-05-17T05:20:52.903Z,79.63
2019-05-17T05:21:52.875Z,79.87
2019-05-17T05:22:52.855Z,79.43
2019-05-17T05:23:52.902Z,79.63
2019-05-17T05:24:52.875Z,79.77
2019-05-17T05:25:52.812Z,79.63
2019-05-17T05:26:52.828Z,79.52
2019-05-17T05:27:57.814Z,79.73
2019-05-17T05:28:53.056Z,79.83
2019-05-17T05:29:52.782Z,79.63
2019-05-17T05:30:52.875Z,79.52
2019-05-17T05:31:52.760Z,79.32
2019-05-17T05:32:52.738Z,79.32
2019-05-17T05:33:52.729Z,79.52
2019-05-17T05:34:52.727Z,79.18
2019-05-17T05:35:52.703Z,79.12
2019-05-17T05:36:52.689Z,79.39
2019-05-17T05:37:52.679Z,79.49
2019-05-17T05:38:57.702Z,79.69
2019-05-17T05:39:54.615Z,79.39
2019-05-17T05:40:52.652Z,79.18
2019-05-17T05:42:05.084Z,78.98
2019-05-17T05:42:53.621Z,78.67
2019-05-17T05:43:52.772Z,79.08
2019-05-17T05:44:55.414Z,78.77
2019-05-17T05:45:53.593Z,78.88
2019-05-17T05:46:52.577Z,78.98
2019-05-17T05:47:52.581Z,78.77
2019-05-17T05:48:52.564Z,78.88
2019-05-17T05:49:58.036Z,78.88
2019-05-17T05:50:52.533Z,78.57
2019-05-17T05:51:52.524Z,79.08
2019-05-17T05:52:52.514Z,78.06
2019-05-17T05:53:52.499Z,77.62
2019-05-17T05:54:52.503Z,77.21
2019-05-17T05:55:52.478Z,77.41
2019-05-17T05:56:52.586Z,77.21
2019-05-17T05:57:52.454Z,77.51
2019-05-17T05:58:52.444Z,77.00
2019-05-17T05:59:52.448Z,77.00
2019-05-17T06:00:57.445Z,77.21
2019-05-17T06:01:52.647Z,77.31
2019-05-17T06:02:52.412Z,77.11
2019-05-17T06:03:52.388Z,76.90
2019-05-17T06:04:52.392Z,76.76
2019-05-17T06:05:52.662Z,76.66
2019-05-17T06:06:52.366Z,76.35
2019-05-17T06:07:52.458Z,76.35
2019-05-17T06:08:52.333Z,75.64
2019-05-17T06:09:52.339Z,75.85
2019-05-17T06:10:53.081Z,76.05
2019-05-17T06:11:57.322Z,76.05
2019-05-17T06:12:52.287Z,75.60
2019-05-17T06:13:52.456Z,75.64
2019-05-17T06:14:52.491Z,75.51
2019-05-17T06:15:52.266Z,75.30
2019-05-17T06:16:52.264Z,75.20
2019-05-17T06:17:52.234Z,75.60
2019-05-17T06:18:52.229Z,75.40
2019-05-17T06:19:52.209Z,75.20
2019-05-17T06:20:52.501Z,75.10
2019-05-17T06:21:52.185Z,75.03
2019-05-17T06:22:57.227Z,74.99
2019-05-17T06:23:52.184Z,75.20
2019-05-17T06:24:52.188Z,74.90
2019-05-17T06:25:52.320Z,74.99
2019-05-17T06:26:52.570Z,75.40
2019-05-17T06:27:52.165Z,75.51
2019-05-17T06:28:52.109Z,74.58
2019-05-17T06:29:52.098Z,74.08
2019-05-17T06:30:52.317Z,74.69
2019-05-17T06:31:52.076Z,74.55
2019-05-17T06:32:52.068Z,74.28
2019-05-17T06:33:57.079Z,74.76
2019-05-17T06:34:52.049Z,74.65
2019-05-17T06:35:52.570Z,73.91
2019-05-17T06:36:52.833Z,73.50
2019-05-17T06:37:53.594Z,73.40
2019-05-17T06:38:52.746Z,72.96
2019-05-17T06:39:52.701Z,72.82
2019-05-17T06:40:52.450Z,72.45
2019-05-17T06:41:52.286Z,72.11
2019-05-17T06:42:52.512Z,72.11
2019-05-17T06:43:52.469Z,72.14
2019-05-17T06:44:56.952Z,72.14
2019-05-17T06:45:52.362Z,72.41
2019-05-17T06:46:52.090Z,72.45
2019-05-17T06:47:51.954Z,72.01
2019-05-17T06:48:52.975Z,71.26
2019-05-17T06:49:53.438Z,70.52
2019-05-17T06:50:52.088Z,70.01
2019-05-17T06:51:51.859Z,69.81
2019-05-17T06:52:53.232Z,70.01
2019-05-17T06:53:52.383Z,69.91
2019-05-17T06:54:52.498Z,70.04
2019-05-17T06:55:56.849Z,71.09
2019-05-17T06:56:52.556Z,71.50
2019-05-17T06:57:52.799Z,71.80
2019-05-17T06:58:51.785Z,71.36
2019-05-17T06:59:51.769Z,71.06
2019-05-17T07:00:51.768Z,71.16
2019-05-17T07:01:51.746Z,70.35
2019-05-17T07:02:51.779Z,70.45
2019-05-17T07:03:51.724Z,70.45
2019-05-17T07:04:51.713Z,70.35
2019-05-17T07:05:51.719Z,70.04
2019-05-17T07:06:56.733Z,69.70
2019-05-17T07:07:51.698Z,69.50
2019-05-17T07:08:51.676Z,68.86
2019-05-17T07:09:51.668Z,68.45
2019-05-17T07:10:51.646Z,68.32
2019-05-17T07:11:51.648Z,69.06
2019-05-17T07:12:58.509Z,67.91
2019-05-17T07:13:52.619Z,68.52
2019-05-17T07:14:51.606Z,68.96
2019-05-17T07:15:51.602Z,68.76
2019-05-17T07:16:51.589Z,68.86
2019-05-17T07:17:56.588Z,69.34
2019-05-17T07:18:51.556Z,68.96
2019-05-17T07:19:51.542Z,68.49
2019-05-17T07:20:51.537Z,69.20
2019-05-17T07:21:51.532Z,69.09
2019-05-17T07:22:51.507Z,69.20
2019-05-17T07:23:51.498Z,68.92
2019-05-17T07:24:51.500Z,69.43
2019-05-17T07:25:51.484Z,70.25
2019-05-17T07:26:51.487Z,70.11
2019-05-17T07:27:51.452Z,68.69
2019-05-17T07:28:56.465Z,68.79
2019-05-17T07:29:51.429Z,68.79
2019-05-17T07:30:51.421Z,68.38
2019-05-17T07:31:51.416Z,67.54
2019-05-17T07:32:51.392Z,67.54
2019-05-17T07:33:51.381Z,67.50
2019-05-17T07:34:51.371Z,67.13
2019-05-17T07:35:51.359Z,67.61
2019-05-17T07:36:51.360Z,66.90
2019-05-17T07:37:51.341Z,67.50
2019-05-17T07:38:51.373Z,67.10
2019-05-17T07:40:01.072Z,67.20
2019-05-17T07:40:52.300Z,67.00
2019-05-17T07:41:51.304Z,67.20
2019-05-17T07:42:51.286Z,66.80
2019-05-17T07:43:51.269Z,66.80
2019-05-17T07:44:51.270Z,67.20
2019-05-17T07:45:51.247Z,66.19
2019-05-17T07:46:51.924Z,65.99
2019-05-17T07:47:51.221Z,65.58
2019-05-17T07:48:51.216Z,67.38
2019-05-17T07:49:54.508Z,65.55
2019-05-17T07:50:56.218Z,66.56
2019-05-17T07:51:51.178Z,66.05
2019-05-17T07:52:51.218Z,66.13
2019-05-17T07:53:51.159Z,65.52
2019-05-17T07:54:51.144Z,65.31
2019-05-17T07:55:51.132Z,64.67
2019-05-17T07:56:51.132Z,64.27
2019-05-17T07:57:51.125Z,63.26
2019-05-17T07:58:51.101Z,63.69
2019-05-17T07:59:51.087Z,64.07
2019-05-17T08:00:51.576Z,63.76
2019-05-17T08:01:56.088Z,63.46
2019-05-17T08:02:51.075Z,63.66
2019-05-17T08:03:51.043Z,63.12
2019-05-17T08:04:51.033Z,62.72
2019-05-17T08:05:51.023Z,62.59
2019-05-17T08:06:51.011Z,61.98
2019-05-17T08:07:51.015Z,61.88
2019-05-17T08:08:50.992Z,61.47
2019-05-17T08:09:50.990Z,61.65
2019-05-17T08:10:51.249Z,61.55
2019-05-17T08:11:50.955Z,61.65
2019-05-17T08:12:55.979Z,61.01
2019-05-17T08:13:50.934Z,60.91
2019-05-17T08:14:50.921Z,60.38
2019-05-17T08:15:50.910Z,60.41
2019-05-17T08:16:50.915Z,60.58
2019-05-17T08:17:50.902Z,60.10
2019-05-17T08:18:50.877Z,60.43
2019-05-17T08:19:50.868Z,60.57
2019-05-17T08:20:50.853Z,60.97
2019-05-17T08:21:50.843Z,61.37
2019-05-17T08:22:50.845Z,61.27
2019-05-17T08:23:55.858Z,61.37
2019-05-17T08:24:50.820Z,61.17
2019-05-17T08:25:56.012Z,61.35
2019-05-17T08:26:51.794Z,60.13
2019-05-17T08:27:50.808Z,60.33
2019-05-17T08:28:50.766Z,58.92
2019-05-17T08:29:50.774Z,59.42
2019-05-17T08:30:50.756Z,59.19
2019-05-17T08:31:50.730Z,59.12
2019-05-17T08:32:50.736Z,59.12
2019-05-17T08:33:50.711Z,59.19
2019-05-17T08:34:55.742Z,59.80
2019-05-17T08:35:50.691Z,59.67
2019-05-17T08:36:50.686Z,58.65
2019-05-17T08:37:50.689Z,59.27
2019-05-17T08:38:50.664Z,58.96
2019-05-17T08:39:50.658Z,59.27
2019-05-17T08:40:51.109Z,58.99
2019-05-17T08:41:50.649Z,58.63
2019-05-17T08:42:50.609Z,57.92
2019-05-17T08:43:51.344Z,57.21
2019-05-17T08:44:50.587Z,57.52
2019-05-17T08:45:58.422Z,57.62
2019-05-17T08:46:50.582Z,57.18
2019-05-17T08:47:50.556Z,57.49
2019-05-17T08:48:50.563Z,55.98
2019-05-17T08:49:50.530Z,56.91
2019-05-17T08:50:50.524Z,57.11
2019-05-17T08:51:50.556Z,56.78
2019-05-17T08:52:50.497Z,56.38
2019-05-17T08:53:50.499Z,56.58
2019-05-17T08:54:50.477Z,56.38
2019-05-17T08:55:50.464Z,55.57
2019-05-17T08:56:55.488Z,55.57
2019-05-17T08:57:50.441Z,55.57
2019-05-17T08:58:50.444Z,55.54
2019-05-17T08:59:50.432Z,55.11
2019-05-17T09:00:50.626Z,54.10
2019-05-17T09:01:50.649Z,53.88
2019-05-17T09:02:50.385Z,53.58
2019-05-17T09:03:50.699Z,52.87
2019-05-17T09:04:50.364Z,53.05
2019-05-17T09:05:52.559Z,51.84
2019-05-17T09:06:50.595Z,52.11
2019-05-17T09:07:55.351Z,51.20
2019-05-17T09:08:50.330Z,49.99
2019-05-17T09:09:50.410Z,51.08
2019-05-17T09:10:50.669Z,50.37
2019-05-17T09:11:50.291Z,50.17
2019-05-17T09:12:50.406Z,50.17
2019-05-17T09:13:57.540Z,49.47
2019-05-17T09:14:51.251Z,49.77
2019-05-17T09:15:50.241Z,50.20
2019-05-17T09:16:50.532Z,49.59
2019-05-17T09:17:50.225Z,50.10
2019-05-17T09:18:55.244Z,51.10
2019-05-17T09:19:50.950Z,51.00
2019-05-17T09:20:50.183Z,50.70
2019-05-17T09:21:50.356Z,50.22
2019-05-17T09:22:51.100Z,51.03
2019-05-17T09:23:50.436Z,51.31
2019-05-17T09:24:50.194Z,50.70
2019-05-17T09:25:50.281Z,49.99
2019-05-17T09:26:50.121Z,50.40
2019-05-17T09:27:50.255Z,50.20
2019-05-17T09:28:50.101Z,49.49
2019-05-17T09:29:55.116Z,49.59
2019-05-17T09:30:50.752Z,49.99
2019-05-17T09:31:50.536Z,50.20
2019-05-17T09:32:50.445Z,50.30
2019-05-17T09:33:50.045Z,51.10
2019-05-17T09:34:50.077Z,50.68
2019-05-17T09:35:50.245Z,50.07
2019-05-17T09:36:50.004Z,49.77
2019-05-17T09:37:50.040Z,49.99
2019-05-17T09:38:49.984Z,49.69
2019-05-17T09:39:49.987Z,49.99
2019-05-17T09:40:54.982Z,50.93
2019-05-17T09:41:50.337Z,51.10
2019-05-17T09:42:50.096Z,50.10
2019-05-17T09:43:49.935Z,49.87
2019-05-17T09:44:49.929Z,49.37
2019-05-17T09:45:50.738Z,49.69
2019-05-17T09:46:50.420Z,50.30
2019-05-17T09:47:50.515Z,49.49
2019-05-17T09:48:50.553Z,49.27
2019-05-17T09:49:50.200Z,50.07
2019-05-17T09:50:50.629Z,49.55
2019-05-17T09:51:54.859Z,49.57
2019-05-17T09:52:49.831Z,50.27
2019-05-17T09:53:49.848Z,50.05
2019-05-17T09:54:50.423Z,50.17
2019-05-17T09:55:50.001Z,50.17
2019-05-17T09:56:49.840Z,49.90
2019-05-17T09:57:49.888Z,51.10
2019-05-17T09:58:49.761Z,50.70
2019-05-17T09:59:49.787Z,51.00
2019-05-17T10:00:49.758Z,51.20
2019-05-17T10:01:49.729Z,50.90
2019-05-17T10:02:54.741Z,51.31
2019-05-17T10:03:50.649Z,51.10
2019-05-17T10:04:50.254Z,51.40
2019-05-17T10:05:49.718Z,51.00
2019-05-17T10:06:51.333Z,50.27
2019-05-17T10:07:50.653Z,50.27
2019-05-17T10:08:49.713Z,50.88
2019-05-17T10:09:50.177Z,49.57
2019-05-17T10:11:04.255Z,49.87
2019-05-17T10:11:50.624Z,49.85
2019-05-17T10:12:49.970Z,49.52
2019-05-17T10:13:54.614Z,49.44
2019-05-17T10:14:49.888Z,48.84
2019-05-17T10:15:50.017Z,48.84
2019-05-17T10:16:49.562Z,49.75
2019-05-17T10:17:49.556Z,49.44
2019-05-17T10:18:49.566Z,49.44
2019-05-17T10:19:49.530Z,48.92
2019-05-17T10:20:50.638Z,49.12
2019-05-17T10:21:49.500Z,48.72
2019-05-17T10:22:50.411Z,49.10
2019-05-17T10:23:49.852Z,48.69
2019-05-17T10:24:54.503Z,48.01
2019-05-17T10:25:49.469Z,48.61
2019-05-17T10:26:49.910Z,48.92
2019-05-17T10:27:49.875Z,48.94
2019-05-17T10:28:51.540Z,49.73
2019-05-17T10:29:50.083Z,49.42
2019-05-17T10:30:52.237Z,48.92
2019-05-17T10:31:50.434Z,48.29
2019-05-17T10:32:50.487Z,48.29
2019-05-17T10:33:49.572Z,48.09
2019-05-17T10:34:49.559Z,47.79
2019-05-17T10:35:54.381Z,48.52
2019-05-17T10:36:50.654Z,48.11
2019-05-17T10:37:50.621Z,48.11
2019-05-17T10:38:50.199Z,48.72
2019-05-17T10:39:50.233Z,48.01
2019-05-17T10:40:50.029Z,48.90
2019-05-17T10:41:50.087Z,47.89
2019-05-17T10:42:50.010Z,48.72
2019-05-17T10:43:50.092Z,48.32
2019-05-17T10:44:51.306Z,48.52
2019-05-17T10:45:49.258Z,49.15
2019-05-17T10:46:54.251Z,49.55
2019-05-17T10:47:50.311Z,50.15
2019-05-17T10:48:50.041Z,50.25
2019-05-17T10:49:49.702Z,49.97
2019-05-17T10:50:49.700Z,50.17
2019-05-17T10:51:49.500Z,49.44
2019-05-17T10:52:49.158Z,49.27
2019-05-17T10:53:51.260Z,49.85
2019-05-17T10:54:49.136Z,49.85
2019-05-17T10:55:49.763Z,49.85
2019-05-17T10:56:50.255Z,50.05
2019-05-17T10:57:54.123Z,49.77
2019-05-17T10:58:49.372Z,49.97
2019-05-17T10:59:49.930Z,50.35
2019-05-17T11:00:50.102Z,49.75
2019-05-17T11:01:50.199Z,49.97
2019-05-17T11:02:50.306Z,50.57
2019-05-17T11:03:50.240Z,50.27
2019-05-17T11:04:50.652Z,49.67
2019-05-17T11:05:50.254Z,50.17
2019-05-17T11:06:50.126Z,50.57
2019-05-17T11:07:50.374Z,50.17
2019-05-17T11:08:54.014Z,50.70
2019-05-17T11:09:50.836Z,51.40
2019-05-17T11:10:50.104Z,51.10
2019-05-17T11:11:48.963Z,50.27
2019-05-17T11:12:48.936Z,49.62
2019-05-17T11:13:48.930Z,48.05
2019-05-17T11:15:01.089Z,46.97
2019-05-17T11:15:49.900Z,46.25
2019-05-17T11:16:48.908Z,45.00
2019-05-17T11:17:48.879Z,44.35
2019-05-17T11:18:48.868Z,43.63
2019-05-17T11:19:53.880Z,43.62
2019-05-17T11:20:48.846Z,42.97
2019-05-17T11:21:48.847Z,41.05
2019-05-17T11:22:48.824Z,40.34
2019-05-17T11:23:48.816Z,40.00
2019-05-17T11:24:48.803Z,39.08
2019-05-17T11:25:48.798Z,39.08
2019-05-17T11:26:48.793Z,39.28
2019-05-17T11:27:48.780Z,39.38
2019-05-17T11:28:48.763Z,39.06
2019-05-17T11:29:48.751Z,38.86
2019-05-17T11:30:53.761Z,38.86
2019-05-17T11:31:48.762Z,38.89
2019-05-17T11:32:48.744Z,38.76
2019-05-17T11:33:48.710Z,38.67
2019-05-17T11:34:48.694Z,39.00
2019-05-17T11:35:48.686Z,39.82
2019-05-17T11:36:48.684Z,40.47
2019-05-17T11:37:48.662Z,41.39
2019-05-17T11:38:48.651Z,41.21
2019-05-17T11:39:48.642Z,42.55
2019-05-17T11:40:50.002Z,42.25
2019-05-17T11:41:48.673Z,43.26
2019-05-17T11:42:48.609Z,43.85
2019-05-17T11:43:53.632Z,43.35
2019-05-17T11:44:48.586Z,43.76
2019-05-17T11:45:48.575Z,43.85
2019-05-17T11:46:48.571Z,43.76
2019-05-17T11:47:48.568Z,43.16
2019-05-17T11:48:48.543Z,43.76
2019-05-17T11:49:48.532Z,43.66
2019-05-17T11:50:48.523Z,43.63
2019-05-17T11:51:48.514Z,43.19
2019-05-17T11:52:48.515Z,41.25
2019-05-17T11:53:48.503Z,40.59
2019-05-17T11:54:53.502Z,38.86
2019-05-17T11:55:48.469Z,38.86
2019-05-17T11:56:48.468Z,40.36
2019-05-17T11:57:48.460Z,41.58
2019-05-17T11:58:48.447Z,43.01
2019-05-17T11:59:48.428Z,43.76
2019-05-17T12:00:48.413Z,43.76
2019-05-17T12:01:48.404Z,43.88
2019-05-17T12:02:48.404Z,44.78
2019-05-17T12:03:48.385Z,44.38
2019-05-17T12:04:48.371Z,43.55
2019-05-17T12:05:53.385Z,42.69
2019-05-17T12:06:48.349Z,41.58
2019-05-17T12:07:48.348Z,41.75
2019-05-17T12:08:48.329Z,40.32
2019-05-17T12:09:48.319Z,40.20
2019-05-17T12:10:48.538Z,39.98
2019-05-17T12:11:48.293Z,38.96
2019-05-17T12:12:48.296Z,38.75
2019-05-17T12:13:48.274Z,38.45
2019-05-17T12:14:48.262Z,39.03
2019-05-17T12:15:48.255Z,38.71
2019-05-17T12:16:53.265Z,37.40
2019-05-17T12:17:48.273Z,37.60
2019-05-17T12:18:48.251Z,38.28
2019-05-17T12:19:48.212Z,38.07
2019-05-17T12:20:48.198Z,37.46
2019-05-17T12:21:48.186Z,38.06
2019-05-17T12:22:48.189Z,36.53
2019-05-17T12:23:48.173Z,35.82
2019-05-17T12:24:48.156Z,35.72
2019-05-17T12:25:48.144Z,36.41
2019-05-17T12:26:48.135Z,36.43
2019-05-17T12:27:48.138Z,36.13
2019-05-17T12:28:48.123Z,36.25
2019-05-17T12:29:53.128Z,35.85
2019-05-17T12:30:48.131Z,36.36
2019-05-17T12:31:48.106Z,38.11
2019-05-17T12:32:48.086Z,37.45
2019-05-17T12:33:48.073Z,38.80
2019-05-17T12:34:48.051Z,40.12
2019-05-17T12:35:48.036Z,40.56
2019-05-17T12:36:48.028Z,40.67
2019-05-17T12:37:48.102Z,40.91
2019-05-17T12:38:48.006Z,42.54
2019-05-17T12:39:48.008Z,43.05
2019-05-17T12:40:47.996Z,43.85
2019-05-17T12:41:47.984Z,43.76
2019-05-17T12:42:52.997Z,43.76
2019-05-17T12:43:47.949Z,43.66
2019-05-17T12:44:47.944Z,43.77
2019-05-17T12:46:00.152Z,44.28
2019-05-17T12:46:48.919Z,43.38
2019-05-17T12:47:47.911Z,43.98
2019-05-17T12:48:47.909Z,44.68
2019-05-17T12:49:47.884Z,45.18
2019-05-17T12:50:47.875Z,44.30
2019-05-17T12:51:47.863Z,44.78
2019-05-17T12:52:47.857Z,43.77